sensor_id;sensor_type;location;lat;lon;timestamp;P1;P2;P0
37290;PMS5003;23175;-33.706;151.094;2023-06-22T00:00:29;11;8;
37290;PMS5003;23175;-33.706;151.094;2023-06-22T00:02:58;5;5;
37290;PMS5003;23175;-33.706;151.094;2023-06-22T00:05:29;9;9;
37290;PMS5003;23175;-33.706;151.094;2023-06-22T00:08:01;9;9;
37290;PMS5003;23175;-33.706;151.094;2023-06-22T00:10:32;9;8;
37290;PMS5003;23175;-33.706;151.094;2023-06-22T00:13:02;9;9;
37290;PMS5003;23175;-33.706;151.094;2023-06-22T00:15:32;8;8;
37290;PMS5003;23175;-33.706;151.094;2023-06-22T00:18:05;8;8;
37290;PMS5003;23175;-33.706;151.094;2023-06-22T00:20:36;5;3;
37290;PMS5003;23175;-33.706;151.094;2023-06-22T00:23:07;6;6;
37290;PMS5003;23175;-33.706;151.094;2023-06-22T00:25:37;5;5;
37290;PMS5003;23175;-33.706;151.094;2023-06-22T00:28:07;5;5;
37290;PMS5003;23175;-33.706;151.094;2023-06-22T00:30:37;6;5;
37290;PMS5003;23175;-33.706;151.094;2023-06-22T00:33:07;3;3;
37290;PMS5003;23175;-33.706;151.094;2023-06-22T00:35:37;5;5;
37290;PMS5003;23175;-33.706;151.094;2023-06-22T00:38:07;6;6;
37290;PMS5003;23175;-33.706;151.094;2023-06-22T00:40:37;4;4;
37290;PMS5003;23175;-33.706;151.094;2023-06-22T00:43:07;4;4;
37290;PMS5003;23175;-33.706;151.094;2023-06-22T00:45:37;5;5;
37290;PMS5003;23175;-33.706;151.094;2023-06-22T00:48:07;8;5;
37290;PMS5003;23175;-33.706;151.094;2023-06-22T00:50:40;3;3;
37290;PMS5003;23175;-33.706;151.094;2023-06-22T00:53:10;3;3;
37290;PMS5003;23175;-33.706;151.094;2023-06-22T00:55:42;4;4;
37290;PMS5003;23175;-33.706;151.094;2023-06-22T00:58:12;6;6;
37290;PMS5003;23175;-33.706;151.094;2023-06-22T01:00:42;7;5;
37290;PMS5003;23175;-33.706;151.094;2023-06-22T01:03:12;6;4;
37290;PMS5003;23175;-33.706;151.094;2023-06-22T01:05:42;3;3;
37290;PMS5003;23175;-33.706;151.094;2023-06-22T01:08:19;4;4;
37290;PMS5003;23175;-33.706;151.094;2023-06-22T01:10:58;5;5;
37290;PMS5003;23175;-33.706;151.094;2023-06-22T01:13:37;6;6;
37290;PMS5003;23175;-33.706;151.094;2023-06-22T01:16:14;7;7;
37290;PMS5003;23175;-33.706;151.094;2023-06-22T01:18:49;5;5;
37290;PMS5003;23175;-33.706;151.094;2023-06-22T01:21:23;7;4;
37290;PMS5003;23175;-33.706;151.094;2023-06-22T01:23:59;4;4;
37290;PMS5003;23175;-33.706;151.094;2023-06-22T01:26:40;4;3;
37290;PMS5003;23175;-33.706;151.094;2023-06-22T01:29:21;6;4;
37290;PMS5003;23175;-33.706;151.094;2023-06-22T01:31:55;4;4;
37290;PMS5003;23175;-33.706;151.094;2023-06-22T01:34:27;3;3;
37290;PMS5003;23175;-33.706;151.094;2023-06-22T01:36:58;3;3;
37290;PMS5003;23175;-33.706;151.094;2023-06-22T01:39:30;2;2;
37290;PMS5003;23175;-33.706;151.094;2023-06-22T01:42:02;4;4;
37290;PMS5003;23175;-33.706;151.094;2023-06-22T01:44:33;8;7;
37290;PMS5003;23175;-33.706;151.094;2023-06-22T01:47:04;2;2;
37290;PMS5003;23175;-33.706;151.094;2023-06-22T01:49:35;2;2;
37290;PMS5003;23175;-33.706;151.094;2023-06-22T01:52:06;3;3;
37290;PMS5003;23175;-33.706;151.094;2023-06-22T01:54:36;3;3;
37290;PMS5003;23175;-33.706;151.094;2023-06-22T01:57:08;3;3;
37290;PMS5003;23175;-33.706;151.094;2023-06-22T01:59:39;3;3;
37290;PMS5003;23175;-33.706;151.094;2023-06-22T02:02:17;3;3;
37290;PMS5003;23175;-33.706;151.094;2023-06-22T02:04:51;1;1;
37290;PMS5003;23175;-33.706;151.094;2023-06-22T02:07:26;3;1;
37290;PMS5003;23175;-33.706;151.094;2023-06-22T02:10:00;3;3;
37290;PMS5003;23175;-33.706;151.094;2023-06-22T02:12:34;4;4;
37290;PMS5003;23175;-33.706;151.094;2023-06-22T02:15:06;3;3;
37290;PMS5003;23175;-33.706;151.094;2023-06-22T02:17:37;4;4;
37290;PMS5003;23175;-33.706;151.094;2023-06-22T02:20:08;3;3;
37290;PMS5003;23175;-33.706;151.094;2023-06-22T02:22:42;4;4;
37290;PMS5003;23175;-33.706;151.094;2023-06-22T02:25:12;2;2;
37290;PMS5003;23175;-33.706;151.094;2023-06-22T02:27:42;2;2;
37290;PMS5003;23175;-33.706;151.094;2023-06-22T02:30:12;4;4;
37290;PMS5003;23175;-33.706;151.094;2023-06-22T02:32:42;5;3;
37290;PMS5003;23175;-33.706;151.094;2023-06-22T02:35:12;4;2;
37290;PMS5003;23175;-33.706;151.094;2023-06-22T02:37:42;3;3;
37290;PMS5003;23175;-33.706;151.094;2023-06-22T02:40:11;6;4;
37290;PMS5003;23175;-33.706;151.094;2023-06-22T02:42:41;5;3;
37290;PMS5003;23175;-33.706;151.094;2023-06-22T02:45:11;3;3;
37290;PMS5003;23175;-33.706;151.094;2023-06-22T02:47:40;4;3;
37290;PMS5003;23175;-33.706;151.094;2023-06-22T02:50:10;5;4;
37290;PMS5003;23175;-33.706;151.094;2023-06-22T02:52:40;4;3;
37290;PMS5003;23175;-33.706;151.094;2023-06-22T02:55:10;4;4;
37290;PMS5003;23175;-33.706;151.094;2023-06-22T02:57:40;2;2;
37290;PMS5003;23175;-33.706;151.094;2023-06-22T03:00:12;4;4;
37290;PMS5003;23175;-33.706;151.094;2023-06-22T03:02:42;2;2;
37290;PMS5003;23175;-33.706;151.094;2023-06-22T03:05:13;9;6;
37290;PMS5003;23175;-33.706;151.094;2023-06-22T03:07:44;5;5;
37290;PMS5003;23175;-33.706;151.094;2023-06-22T03:10:14;5;5;
37290;PMS5003;23175;-33.706;151.094;2023-06-22T03:12:44;5;4;
37290;PMS5003;23175;-33.706;151.094;2023-06-22T03:15:14;4;4;
37290;PMS5003;23175;-33.706;151.094;2023-06-22T03:17:45;3;3;
37290;PMS5003;23175;-33.706;151.094;2023-06-22T03:20:15;3;3;
37290;PMS5003;23175;-33.706;151.094;2023-06-22T03:22:45;8;3;
37290;PMS5003;23175;-33.706;151.094;2023-06-22T03:25:14;3;3;
37290;PMS5003;23175;-33.706;151.094;2023-06-22T03:27:44;4;4;
37290;PMS5003;23175;-33.706;151.094;2023-06-22T03:30:14;4;4;
37290;PMS5003;23175;-33.706;151.094;2023-06-22T03:32:44;4;4;
37290;PMS5003;23175;-33.706;151.094;2023-06-22T03:35:14;4;4;
37290;PMS5003;23175;-33.706;151.094;2023-06-22T03:37:44;4;3;
37290;PMS5003;23175;-33.706;151.094;2023-06-22T03:40:13;2;2;
37290;PMS5003;23175;-33.706;151.094;2023-06-22T03:42:43;6;3;
37290;PMS5003;23175;-33.706;151.094;2023-06-22T03:45:14;5;5;
37290;PMS5003;23175;-33.706;151.094;2023-06-22T03:47:44;6;5;
37290;PMS5003;23175;-33.706;151.094;2023-06-22T03:50:14;5;5;
37290;PMS5003;23175;-33.706;151.094;2023-06-22T03:52:43;5;5;
37290;PMS5003;23175;-33.706;151.094;2023-06-22T03:55:14;5;4;
37290;PMS5003;23175;-33.706;151.094;2023-06-22T03:57:44;5;5;
37290;PMS5003;23175;-33.706;151.094;2023-06-22T04:00:14;5;5;
37290;PMS5003;23175;-33.706;151.094;2023-06-22T04:02:44;5;5;
37290;PMS5003;23175;-33.706;151.094;2023-06-22T04:05:14;3;3;
37290;PMS5003;23175;-33.706;151.094;2023-06-22T04:07:44;4;4;
37290;PMS5003;23175;-33.706;151.094;2023-06-22T04:10:14;4;4;
37290;PMS5003;23175;-33.706;151.094;2023-06-22T04:12:44;7;6;
37290;PMS5003;23175;-33.706;151.094;2023-06-22T04:15:14;3;3;
37290;PMS5003;23175;-33.706;151.094;2023-06-22T04:17:44;7;6;
37290;PMS5003;23175;-33.706;151.094;2023-06-22T04:20:14;6;6;
37290;PMS5003;23175;-33.706;151.094;2023-06-22T04:22:44;6;6;
37290;PMS5003;23175;-33.706;151.094;2023-06-22T04:25:14;6;5;
37290;PMS5003;23175;-33.706;151.094;2023-06-22T04:27:45;4;2;
37290;PMS5003;23175;-33.706;151.094;2023-06-22T04:30:16;3;3;
37290;PMS5003;23175;-33.706;151.094;2023-06-22T04:32:46;5;5;
37290;PMS5003;23175;-33.706;151.094;2023-06-22T04:35:17;3;3;
37290;PMS5003;23175;-33.706;151.094;2023-06-22T04:37:46;3;3;
37290;PMS5003;23175;-33.706;151.094;2023-06-22T04:40:16;4;4;
37290;PMS5003;23175;-33.706;151.094;2023-06-22T04:42:46;2;2;
37290;PMS5003;23175;-33.706;151.094;2023-06-22T04:45:16;6;6;
37290;PMS5003;23175;-33.706;151.094;2023-06-22T04:47:46;5;5;
37290;PMS5003;23175;-33.706;151.094;2023-06-22T04:50:16;3;3;
37290;PMS5003;23175;-33.706;151.094;2023-06-22T04:52:47;6;6;
37290;PMS5003;23175;-33.706;151.094;2023-06-22T04:55:18;6;5;
37290;PMS5003;23175;-33.706;151.094;2023-06-22T04:57:48;7;5;
37290;PMS5003;23175;-33.706;151.094;2023-06-22T05:00:19;4;4;
37290;PMS5003;23175;-33.706;151.094;2023-06-22T05:02:49;8;5;
37290;PMS5003;23175;-33.706;151.094;2023-06-22T05:05:19;5;5;
37290;PMS5003;23175;-33.706;151.094;2023-06-22T05:07:49;7;5;
37290;PMS5003;23175;-33.706;151.094;2023-06-22T05:10:20;5;5;
37290;PMS5003;23175;-33.706;151.094;2023-06-22T05:12:51;6;6;
37290;PMS5003;23175;-33.706;151.094;2023-06-22T05:15:21;7;6;
37290;PMS5003;23175;-33.706;151.094;2023-06-22T05:17:52;5;4;
37290;PMS5003;23175;-33.706;151.094;2023-06-22T05:20:22;5;5;
37290;PMS5003;23175;-33.706;151.094;2023-06-22T05:22:52;5;5;
37290;PMS5003;23175;-33.706;151.094;2023-06-22T05:25:23;6;6;
37290;PMS5003;23175;-33.706;151.094;2023-06-22T05:27:52;7;7;
37290;PMS5003;23175;-33.706;151.094;2023-06-22T05:30:23;7;7;
37290;PMS5003;23175;-33.706;151.094;2023-06-22T05:32:53;8;7;
37290;PMS5003;23175;-33.706;151.094;2023-06-22T05:35:22;7;4;
37290;PMS5003;23175;-33.706;151.094;2023-06-22T05:37:52;8;6;
37290;PMS5003;23175;-33.706;151.094;2023-06-22T05:40:23;5;5;
37290;PMS5003;23175;-33.706;151.094;2023-06-22T05:42:54;8;8;
37290;PMS5003;23175;-33.706;151.094;2023-06-22T05:45:24;7;6;
37290;PMS5003;23175;-33.706;151.094;2023-06-22T05:47:54;9;9;
37290;PMS5003;23175;-33.706;151.094;2023-06-22T05:50:24;14;10;
37290;PMS5003;23175;-33.706;151.094;2023-06-22T05:52:54;14;12;
37290;PMS5003;23175;-33.706;151.094;2023-06-22T05:55:24;23;21;
37290;PMS5003;23175;-33.706;151.094;2023-06-22T05:57:54;32;26;
37290;PMS5003;23175;-33.706;151.094;2023-06-22T06:00:24;24;24;
37290;PMS5003;23175;-33.706;151.094;2023-06-22T06:02:55;28;26;
37290;PMS5003;23175;-33.706;151.094;2023-06-22T06:05:25;17;16;
37290;PMS5003;23175;-33.706;151.094;2023-06-22T06:07:55;13;13;
37290;PMS5003;23175;-33.706;151.094;2023-06-22T06:10:25;10;10;
37290;PMS5003;23175;-33.706;151.094;2023-06-22T06:12:55;14;12;
37290;PMS5003;23175;-33.706;151.094;2023-06-22T06:15:26;10;10;
37290;PMS5003;23175;-33.706;151.094;2023-06-22T06:17:57;10;10;
37290;PMS5003;23175;-33.706;151.094;2023-06-22T06:20:26;17;17;
37290;PMS5003;23175;-33.706;151.094;2023-06-22T06:22:57;19;17;
37290;PMS5003;23175;-33.706;151.094;2023-06-22T06:25:27;14;12;
37290;PMS5003;23175;-33.706;151.094;2023-06-22T06:27:57;21;21;
37290;PMS5003;23175;-33.706;151.094;2023-06-22T06:30:27;23;20;
37290;PMS5003;23175;-33.706;151.094;2023-06-22T06:32:58;18;16;
37290;PMS5003;23175;-33.706;151.094;2023-06-22T06:35:28;15;15;
37290;PMS5003;23175;-33.706;151.094;2023-06-22T06:37:58;15;13;
37290;PMS5003;23175;-33.706;151.094;2023-06-22T06:40:28;15;13;
37290;PMS5003;23175;-33.706;151.094;2023-06-22T06:42:58;22;20;
37290;PMS5003;23175;-33.706;151.094;2023-06-22T06:45:28;15;14;
37290;PMS5003;23175;-33.706;151.094;2023-06-22T06:47:58;16;15;
37290;PMS5003;23175;-33.706;151.094;2023-06-22T06:50:28;17;14;
37290;PMS5003;23175;-33.706;151.094;2023-06-22T06:52:58;15;14;
37290;PMS5003;23175;-33.706;151.094;2023-06-22T06:55:28;12;12;
37290;PMS5003;23175;-33.706;151.094;2023-06-22T06:57:58;24;21;
37290;PMS5003;23175;-33.706;151.094;2023-06-22T07:00:28;19;19;
37290;PMS5003;23175;-33.706;151.094;2023-06-22T07:02:58;17;16;
37290;PMS5003;23175;-33.706;151.094;2023-06-22T07:05:29;20;20;
37290;PMS5003;23175;-33.706;151.094;2023-06-22T07:07:58;16;15;
37290;PMS5003;23175;-33.706;151.094;2023-06-22T07:10:29;18;18;
37290;PMS5003;23175;-33.706;151.094;2023-06-22T07:12:59;25;22;
37290;PMS5003;23175;-33.706;151.094;2023-06-22T07:15:30;17;17;
37290;PMS5003;23175;-33.706;151.094;2023-06-22T07:18:00;15;15;
37290;PMS5003;23175;-33.706;151.094;2023-06-22T07:20:29;17;15;
37290;PMS5003;23175;-33.706;151.094;2023-06-22T07:23:00;19;19;
37290;PMS5003;23175;-33.706;151.094;2023-06-22T07:25:30;18;18;
37290;PMS5003;23175;-33.706;151.094;2023-06-22T07:28:01;23;23;
37290;PMS5003;23175;-33.706;151.094;2023-06-22T07:30:33;20;19;
37290;PMS5003;23175;-33.706;151.094;2023-06-22T07:33:03;21;20;
37290;PMS5003;23175;-33.706;151.094;2023-06-22T07:35:34;18;16;
37290;PMS5003;23175;-33.706;151.094;2023-06-22T07:38:04;21;21;
37290;PMS5003;23175;-33.706;151.094;2023-06-22T07:40:35;18;17;
37290;PMS5003;23175;-33.706;151.094;2023-06-22T07:43:05;20;17;
37290;PMS5003;23175;-33.706;151.094;2023-06-22T07:45:37;22;22;
37290;PMS5003;23175;-33.706;151.094;2023-06-22T07:48:08;19;18;
37290;PMS5003;23175;-33.706;151.094;2023-06-22T07:50:37;21;19;
37290;PMS5003;23175;-33.706;151.094;2023-06-22T07:53:07;20;18;
37290;PMS5003;23175;-33.706;151.094;2023-06-22T07:55:37;18;18;
37290;PMS5003;23175;-33.706;151.094;2023-06-22T07:58:06;15;15;
37290;PMS5003;23175;-33.706;151.094;2023-06-22T08:00:37;27;27;
37290;PMS5003;23175;-33.706;151.094;2023-06-22T08:03:06;30;28;
37290;PMS5003;23175;-33.706;151.094;2023-06-22T08:05:37;28;25;
37290;PMS5003;23175;-33.706;151.094;2023-06-22T08:08:07;22;21;
37290;PMS5003;23175;-33.706;151.094;2023-06-22T08:10:37;21;20;
37290;PMS5003;23175;-33.706;151.094;2023-06-22T08:13:07;26;26;
37290;PMS5003;23175;-33.706;151.094;2023-06-22T08:15:38;19;19;
37290;PMS5003;23175;-33.706;151.094;2023-06-22T08:18:07;24;23;
37290;PMS5003;23175;-33.706;151.094;2023-06-22T08:20:37;27;24;
37290;PMS5003;23175;-33.706;151.094;2023-06-22T08:23:07;24;24;
37290;PMS5003;23175;-33.706;151.094;2023-06-22T08:25:37;23;23;
37290;PMS5003;23175;-33.706;151.094;2023-06-22T08:28:07;22;21;
37290;PMS5003;23175;-33.706;151.094;2023-06-22T08:30:37;25;23;
37290;PMS5003;23175;-33.706;151.094;2023-06-22T08:33:07;21;19;
37290;PMS5003;23175;-33.706;151.094;2023-06-22T08:35:38;19;18;
37290;PMS5003;23175;-33.706;151.094;2023-06-22T08:38:08;30;29;
37290;PMS5003;23175;-33.706;151.094;2023-06-22T08:40:37;33;31;
37290;PMS5003;23175;-33.706;151.094;2023-06-22T08:43:07;36;33;
37290;PMS5003;23175;-33.706;151.094;2023-06-22T08:45:37;30;30;
37290;PMS5003;23175;-33.706;151.094;2023-06-22T08:48:08;35;32;
37290;PMS5003;23175;-33.706;151.094;2023-06-22T08:50:38;35;35;
37290;PMS5003;23175;-33.706;151.094;2023-06-22T08:53:08;24;24;
37290;PMS5003;23175;-33.706;151.094;2023-06-22T08:55:38;33;33;
37290;PMS5003;23175;-33.706;151.094;2023-06-22T08:58:08;27;24;
37290;PMS5003;23175;-33.706;151.094;2023-06-22T09:00:39;29;25;
37290;PMS5003;23175;-33.706;151.094;2023-06-22T09:03:08;26;26;
37290;PMS5003;23175;-33.706;151.094;2023-06-22T09:05:38;33;27;
37290;PMS5003;23175;-33.706;151.094;2023-06-22T09:08:07;30;28;
37290;PMS5003;23175;-33.706;151.094;2023-06-22T09:10:39;25;22;
37290;PMS5003;23175;-33.706;151.094;2023-06-22T09:13:08;25;24;
37290;PMS5003;23175;-33.706;151.094;2023-06-22T09:15:38;27;26;
37290;PMS5003;23175;-33.706;151.094;2023-06-22T09:18:10;26;24;
37290;PMS5003;23175;-33.706;151.094;2023-06-22T09:20:40;36;35;
37290;PMS5003;23175;-33.706;151.094;2023-06-22T09:23:11;28;25;
37290;PMS5003;23175;-33.706;151.094;2023-06-22T09:25:40;37;31;
37290;PMS5003;23175;-33.706;151.094;2023-06-22T09:28:10;29;29;
37290;PMS5003;23175;-33.706;151.094;2023-06-22T09:30:40;26;25;
37290;PMS5003;23175;-33.706;151.094;2023-06-22T09:33:11;29;27;
37290;PMS5003;23175;-33.706;151.094;2023-06-22T09:35:41;25;25;
37290;PMS5003;23175;-33.706;151.094;2023-06-22T09:38:12;28;28;
37290;PMS5003;23175;-33.706;151.094;2023-06-22T09:40:42;24;24;
37290;PMS5003;23175;-33.706;151.094;2023-06-22T09:43:11;21;21;
37290;PMS5003;23175;-33.706;151.094;2023-06-22T09:45:41;32;31;
37290;PMS5003;23175;-33.706;151.094;2023-06-22T09:48:12;38;36;
37290;PMS5003;23175;-33.706;151.094;2023-06-22T09:50:43;35;31;
37290;PMS5003;23175;-33.706;151.094;2023-06-22T09:53:13;29;28;
37290;PMS5003;23175;-33.706;151.094;2023-06-22T09:55:43;29;27;
37290;PMS5003;23175;-33.706;151.094;2023-06-22T09:58:14;26;25;
37290;PMS5003;23175;-33.706;151.094;2023-06-22T10:00:44;26;23;
37290;PMS5003;23175;-33.706;151.094;2023-06-22T10:03:13;28;26;
37290;PMS5003;23175;-33.706;151.094;2023-06-22T10:05:44;28;23;
37290;PMS5003;23175;-33.706;151.094;2023-06-22T10:08:14;27;27;
37290;PMS5003;23175;-33.706;151.094;2023-06-22T10:10:44;30;30;
37290;PMS5003;23175;-33.706;151.094;2023-06-22T10:13:14;32;31;
37290;PMS5003;23175;-33.706;151.094;2023-06-22T10:15:44;24;23;
37290;PMS5003;23175;-33.706;151.094;2023-06-22T10:18:15;33;33;
37290;PMS5003;23175;-33.706;151.094;2023-06-22T10:20:46;38;38;
37290;PMS5003;23175;-33.706;151.094;2023-06-22T10:23:17;36;34;
37290;PMS5003;23175;-33.706;151.094;2023-06-22T10:25:48;36;35;
37290;PMS5003;23175;-33.706;151.094;2023-06-22T10:28:18;35;32;
37290;PMS5003;23175;-33.706;151.094;2023-06-22T10:30:48;29;29;
37290;PMS5003;23175;-33.706;151.094;2023-06-22T10:33:18;33;30;
37290;PMS5003;23175;-33.706;151.094;2023-06-22T10:35:48;34;29;
37290;PMS5003;23175;-33.706;151.094;2023-06-22T10:38:18;35;33;
37290;PMS5003;23175;-33.706;151.094;2023-06-22T10:40:48;27;26;
37290;PMS5003;23175;-33.706;151.094;2023-06-22T10:43:18;30;29;
37290;PMS5003;23175;-33.706;151.094;2023-06-22T10:45:47;30;30;
37290;PMS5003;23175;-33.706;151.094;2023-06-22T10:48:18;30;30;
37290;PMS5003;23175;-33.706;151.094;2023-06-22T10:50:48;29;29;
37290;PMS5003;23175;-33.706;151.094;2023-06-22T10:53:18;30;28;
37290;PMS5003;23175;-33.706;151.094;2023-06-22T10:55:49;37;35;
37290;PMS5003;23175;-33.706;151.094;2023-06-22T10:58:20;28;27;
37290;PMS5003;23175;-33.706;151.094;2023-06-22T11:00:50;29;28;
37290;PMS5003;23175;-33.706;151.094;2023-06-22T11:03:20;35;34;
37290;PMS5003;23175;-33.706;151.094;2023-06-22T11:05:50;26;26;
37290;PMS5003;23175;-33.706;151.094;2023-06-22T11:08:22;30;30;
37290;PMS5003;23175;-33.706;151.094;2023-06-22T11:10:52;25;24;
37290;PMS5003;23175;-33.706;151.094;2023-06-22T11:13:22;31;28;
37290;PMS5003;23175;-33.706;151.094;2023-06-22T11:15:52;22;22;
37290;PMS5003;23175;-33.706;151.094;2023-06-22T11:18:22;23;22;
37290;PMS5003;23175;-33.706;151.094;2023-06-22T11:20:51;21;20;
37290;PMS5003;23175;-33.706;151.094;2023-06-22T11:23:22;20;20;
37290;PMS5003;23175;-33.706;151.094;2023-06-22T11:25:52;27;27;
37290;PMS5003;23175;-33.706;151.094;2023-06-22T11:28:22;13;13;
37290;PMS5003;23175;-33.706;151.094;2023-06-22T11:30:52;16;14;
37290;PMS5003;23175;-33.706;151.094;2023-06-22T11:33:23;21;19;
37290;PMS5003;23175;-33.706;151.094;2023-06-22T11:35:53;15;13;
37290;PMS5003;23175;-33.706;151.094;2023-06-22T11:38:23;16;16;
37290;PMS5003;23175;-33.706;151.094;2023-06-22T11:40:52;18;14;
37290;PMS5003;23175;-33.706;151.094;2023-06-22T11:43:22;13;12;
37290;PMS5003;23175;-33.706;151.094;2023-06-22T11:45:52;15;14;
37290;PMS5003;23175;-33.706;151.094;2023-06-22T11:48:22;15;15;
37290;PMS5003;23175;-33.706;151.094;2023-06-22T11:50:52;17;15;
37290;PMS5003;23175;-33.706;151.094;2023-06-22T11:53:23;21;20;
37290;PMS5003;23175;-33.706;151.094;2023-06-22T11:55:55;21;20;
37290;PMS5003;23175;-33.706;151.094;2023-06-22T11:58:25;14;14;
37290;PMS5003;23175;-33.706;151.094;2023-06-22T12:00:55;17;17;
37290;PMS5003;23175;-33.706;151.094;2023-06-22T12:03:25;15;15;
37290;PMS5003;23175;-33.706;151.094;2023-06-22T12:05:55;14;13;
37290;PMS5003;23175;-33.706;151.094;2023-06-22T12:08:26;13;12;
37290;PMS5003;23175;-33.706;151.094;2023-06-22T12:10:57;13;12;
37290;PMS5003;23175;-33.706;151.094;2023-06-22T12:13:27;18;15;
37290;PMS5003;23175;-33.706;151.094;2023-06-22T12:15:57;17;17;
37290;PMS5003;23175;-33.706;151.094;2023-06-22T12:18:27;19;18;
37290;PMS5003;23175;-33.706;151.094;2023-06-22T12:20:57;25;21;
37290;PMS5003;23175;-33.706;151.094;2023-06-22T12:23:28;23;22;
37290;PMS5003;23175;-33.706;151.094;2023-06-22T12:25:58;19;18;
37290;PMS5003;23175;-33.706;151.094;2023-06-22T12:28:29;19;19;
37290;PMS5003;23175;-33.706;151.094;2023-06-22T12:30:59;19;18;
37290;PMS5003;23175;-33.706;151.094;2023-06-22T12:33:29;19;19;
37290;PMS5003;23175;-33.706;151.094;2023-06-22T12:35:58;15;14;
37290;PMS5003;23175;-33.706;151.094;2023-06-22T12:38:28;25;25;
37290;PMS5003;23175;-33.706;151.094;2023-06-22T12:40:59;12;12;
37290;PMS5003;23175;-33.706;151.094;2023-06-22T12:43:29;14;12;
37290;PMS5003;23175;-33.706;151.094;2023-06-22T12:45:59;14;14;
37290;PMS5003;23175;-33.706;151.094;2023-06-22T12:48:31;13;13;
37290;PMS5003;23175;-33.706;151.094;2023-06-22T12:51:01;15;13;
37290;PMS5003;23175;-33.706;151.094;2023-06-22T12:53:31;16;14;
37290;PMS5003;23175;-33.706;151.094;2023-06-22T12:56:01;12;12;
37290;PMS5003;23175;-33.706;151.094;2023-06-22T12:58:31;15;14;
37290;PMS5003;23175;-33.706;151.094;2023-06-22T13:01:01;10;9;
37290;PMS5003;23175;-33.706;151.094;2023-06-22T13:03:31;13;10;
37290;PMS5003;23175;-33.706;151.094;2023-06-22T13:06:02;8;8;
37290;PMS5003;23175;-33.706;151.094;2023-06-22T13:08:32;9;9;
37290;PMS5003;23175;-33.706;151.094;2023-06-22T13:11:04;9;9;
37290;PMS5003;23175;-33.706;151.094;2023-06-22T13:13:35;10;10;
37290;PMS5003;23175;-33.706;151.094;2023-06-22T13:16:06;9;9;
37290;PMS5003;23175;-33.706;151.094;2023-06-22T13:18:36;15;13;
37290;PMS5003;23175;-33.706;151.094;2023-06-22T13:21:09;11;11;
37290;PMS5003;23175;-33.706;151.094;2023-06-22T13:23:39;10;10;
37290;PMS5003;23175;-33.706;151.094;2023-06-22T13:26:09;9;9;
37290;PMS5003;23175;-33.706;151.094;2023-06-22T13:28:38;10;10;
37290;PMS5003;23175;-33.706;151.094;2023-06-22T13:31:08;10;10;
37290;PMS5003;23175;-33.706;151.094;2023-06-22T13:33:39;9;9;
37290;PMS5003;23175;-33.706;151.094;2023-06-22T13:36:10;10;8;
37290;PMS5003;23175;-33.706;151.094;2023-06-22T13:38:40;12;12;
37290;PMS5003;23175;-33.706;151.094;2023-06-22T13:41:11;12;11;
37290;PMS5003;23175;-33.706;151.094;2023-06-22T13:43:42;12;12;
37290;PMS5003;23175;-33.706;151.094;2023-06-22T13:46:12;15;13;
37290;PMS5003;23175;-33.706;151.094;2023-06-22T13:48:42;16;12;
37290;PMS5003;23175;-33.706;151.094;2023-06-22T13:51:12;10;10;
37290;PMS5003;23175;-33.706;151.094;2023-06-22T13:53:43;13;12;
37290;PMS5003;23175;-33.706;151.094;2023-06-22T13:56:13;16;16;
37290;PMS5003;23175;-33.706;151.094;2023-06-22T13:58:44;12;12;
37290;PMS5003;23175;-33.706;151.094;2023-06-22T14:01:14;12;12;
37290;PMS5003;23175;-33.706;151.094;2023-06-22T14:03:44;11;11;
37290;PMS5003;23175;-33.706;151.094;2023-06-22T14:06:17;9;9;
37290;PMS5003;23175;-33.706;151.094;2023-06-22T14:08:47;12;8;
37290;PMS5003;23175;-33.706;151.094;2023-06-22T14:11:17;8;8;
37290;PMS5003;23175;-33.706;151.094;2023-06-22T14:13:47;9;9;
37290;PMS5003;23175;-33.706;151.094;2023-06-22T14:16:17;13;13;
37290;PMS5003;23175;-33.706;151.094;2023-06-22T14:18:46;14;14;
37290;PMS5003;23175;-33.706;151.094;2023-06-22T14:21:16;10;10;
37290;PMS5003;23175;-33.706;151.094;2023-06-22T14:23:46;8;8;
37290;PMS5003;23175;-33.706;151.094;2023-06-22T14:26:17;10;10;
37290;PMS5003;23175;-33.706;151.094;2023-06-22T14:28:48;9;9;
37290;PMS5003;23175;-33.706;151.094;2023-06-22T14:31:19;10;9;
37290;PMS5003;23175;-33.706;151.094;2023-06-22T14:33:49;11;10;
37290;PMS5003;23175;-33.706;151.094;2023-06-22T14:36:19;8;8;
37290;PMS5003;23175;-33.706;151.094;2023-06-22T14:38:56;10;10;
37290;PMS5003;23175;-33.706;151.094;2023-06-22T14:41:26;9;8;
37290;PMS5003;23175;-33.706;151.094;2023-06-22T14:43:57;10;10;
37290;PMS5003;23175;-33.706;151.094;2023-06-22T14:46:27;8;8;
37290;PMS5003;23175;-33.706;151.094;2023-06-22T14:48:57;10;10;
37290;PMS5003;23175;-33.706;151.094;2023-06-22T14:51:27;10;10;
37290;PMS5003;23175;-33.706;151.094;2023-06-22T14:53:57;14;12;
37290;PMS5003;23175;-33.706;151.094;2023-06-22T14:56:28;13;13;
37290;PMS5003;23175;-33.706;151.094;2023-06-22T14:59:00;11;10;
37290;PMS5003;23175;-33.706;151.094;2023-06-22T15:01:33;11;11;
37290;PMS5003;23175;-33.706;151.094;2023-06-22T15:04:03;15;14;
37290;PMS5003;23175;-33.706;151.094;2023-06-22T15:06:34;11;9;
37290;PMS5003;23175;-33.706;151.094;2023-06-22T15:09:05;12;12;
37290;PMS5003;23175;-33.706;151.094;2023-06-22T15:11:36;10;10;
37290;PMS5003;23175;-33.706;151.094;2023-06-22T15:14:07;12;9;
37290;PMS5003;23175;-33.706;151.094;2023-06-22T15:16:37;10;9;
37290;PMS5003;23175;-33.706;151.094;2023-06-22T15:19:07;7;7;
37290;PMS5003;23175;-33.706;151.094;2023-06-22T15:21:37;13;10;
37290;PMS5003;23175;-33.706;151.094;2023-06-22T15:24:09;10;10;
37290;PMS5003;23175;-33.706;151.094;2023-06-22T15:26:39;9;9;
37290;PMS5003;23175;-33.706;151.094;2023-06-22T15:29:09;9;9;
37290;PMS5003;23175;-33.706;151.094;2023-06-22T15:31:39;10;9;
37290;PMS5003;23175;-33.706;151.094;2023-06-22T15:34:09;10;10;
37290;PMS5003;23175;-33.706;151.094;2023-06-22T15:36:40;10;10;
37290;PMS5003;23175;-33.706;151.094;2023-06-22T15:39:10;6;6;
37290;PMS5003;23175;-33.706;151.094;2023-06-22T15:41:41;10;9;
37290;PMS5003;23175;-33.706;151.094;2023-06-22T15:44:11;9;9;
37290;PMS5003;23175;-33.706;151.094;2023-06-22T15:46:41;8;7;
37290;PMS5003;23175;-33.706;151.094;2023-06-22T15:49:11;8;7;
37290;PMS5003;23175;-33.706;151.094;2023-06-22T15:51:41;10;10;
37290;PMS5003;23175;-33.706;151.094;2023-06-22T15:54:12;9;9;
37290;PMS5003;23175;-33.706;151.094;2023-06-22T15:56:42;7;6;
37290;PMS5003;23175;-33.706;151.094;2023-06-22T15:59:12;6;6;
37290;PMS5003;23175;-33.706;151.094;2023-06-22T16:01:42;10;9;
37290;PMS5003;23175;-33.706;151.094;2023-06-22T16:04:12;9;7;